Time;durP1;ratioP1;P1;durP2;ratioP2;P2;SDS_P1;SDS_P2;PMS_P1;PMS_P2;Temp;Humidity;BMP_temperature;BMP_pressure;BME280_temperature;BME280_humidity;BME280_pressure;Samples;Min_cycle;Max_cycle;Signal;HPM_P1;HPM_P2
2023/11/04 00:01:17;;;;;;;7.43;2.58;;;8.40;100.00;;;;;;4946899;29;20043;-78
2023/11/04 00:03:50;;;;;;;14.45;2.50;;;8.40;100.00;;;;;;4942826;28;20047;-79
2023/11/04 00:06:18;;;;;;;10.68;2.58;;;8.40;100.00;;;;;;4939258;29;20043;-79
2023/11/04 00:08:45;;;;;;;13.63;2.95;;;8.40;100.00;;;;;;4941008;29;20083;-78
2023/11/04 00:11:12;;;;;;;13.85;2.72;;;8.40;100.00;;;;;;4948102;28;20047;-69
2023/11/04 00:13:39;;;;;;;10.73;2.22;;;8.40;100.00;;;;;;4943905;28;20110;-69
2023/11/04 00:16:09;;;;;;;17.23;2.78;;;8.40;100.00;;;;;;4941929;28;20086;-69
2023/11/04 00:18:36;;;;;;;12.07;3.03;;;8.40;100.00;;;;;;4946140;28;20051;-70
2023/11/04 00:21:07;;;;;;;23.08;3.40;;;8.30;100.00;;;;;;4945081;28;20058;-69
2023/11/04 00:23:34;;;;;;;14.02;2.38;;;8.30;100.00;;;;;;4946640;28;20062;-69
2023/11/04 00:26:01;;;;;;;8.95;2.42;;;8.30;100.00;;;;;;4944391;29;20530;-69
2023/11/04 00:28:27;;;;;;;13.07;2.13;;;8.30;100.00;;;;;;4942620;29;20107;-69
2023/11/04 00:30:54;;;;;;;18.25;2.90;;;8.30;100.00;;;;;;4941537;28;20071;-69
2023/11/04 00:33:21;;;;;;;10.60;2.72;;;8.30;100.00;;;;;;4940759;28;20486;-69
2023/11/04 00:35:49;;;;;;;17.10;2.67;;;8.30;100.00;;;;;;4941324;28;20043;-69
2023/11/04 00:38:16;;;;;;;16.13;2.80;;;8.30;100.00;;;;;;4941597;29;20044;-69
2023/11/04 00:40:43;;;;;;;13.68;2.78;;;8.30;100.00;;;;;;4941602;28;20681;-69
2023/11/04 00:43:10;;;;;;;13.82;2.83;;;8.30;100.00;;;;;;4938443;29;20150;-69
2023/11/04 00:45:37;;;;;;;23.83;2.70;;;8.30;100.00;;;;;;4940892;29;20054;-69
2023/11/04 00:48:04;;;;;;;13.38;2.40;;;8.30;100.00;;;;;;4940416;28;20058;-69
2023/11/04 00:50:31;;;;;;;9.45;2.08;;;8.20;100.00;;;;;;4931643;29;20515;-69
2023/11/04 00:52:58;;;;;;;19.20;2.42;;;8.30;100.00;;;;;;4935668;29;20069;-69
2023/11/04 00:55:25;;;;;;;12.93;3.38;;;8.30;100.00;;;;;;4940500;28;20047;-69
2023/11/04 00:57:52;;;;;;;13.85;2.50;;;8.30;100.00;;;;;;4940114;28;20047;-69
2023/11/04 01:00:25;;;;;;;10.13;2.25;;;8.30;100.00;;;;;;4937855;29;20154;-69
2023/11/04 01:02:54;;;;;;;16.42;3.13;;;8.30;100.00;;;;;;4937506;29;20054;-69
2023/11/04 01:05:23;;;;;;;17.42;1.98;;;8.30;100.00;;;;;;4940957;28;20142;-69
2023/11/04 01:07:50;;;;;;;5.82;1.85;;;8.20;100.00;;;;;;4939675;28;20051;-69
2023/11/04 01:10:17;;;;;;;13.30;3.22;;;8.20;100.00;;;;;;4937952;29;20083;-69
2023/11/04 01:12:44;;;;;;;12.15;2.35;;;8.20;100.00;;;;;;4938248;29;20051;-69
2023/11/04 01:15:11;;;;;;;9.88;2.00;;;8.20;100.00;;;;;;4943625;28;20130;-69
2023/11/04 01:17:38;;;;;;;7.35;1.77;;;8.20;100.00;;;;;;4941689;28;20110;-69
2023/11/04 01:20:07;;;;;;;13.43;2.88;;;8.20;100.00;;;;;;4941703;28;20054;-69
2023/11/04 01:22:35;;;;;;;13.98;1.75;;;8.20;100.00;;;;;;4942583;29;20047;-69
2023/11/04 01:25:02;;;;;;;9.50;2.00;;;8.20;100.00;;;;;;4943221;28;20067;-69
2023/11/04 01:27:29;;;;;;;12.93;2.08;;;8.20;100.00;;;;;;4930407;29;20667;-69
2023/11/04 01:29:56;;;;;;;15.88;2.30;;;8.20;100.00;;;;;;4941744;29;20054;-69
2023/11/04 01:32:23;;;;;;;11.32;1.80;;;8.20;100.00;;;;;;4958600;23;20054;-78
2023/11/04 01:34:50;;;;;;;8.43;2.17;;;8.20;100.00;;;;;;4945049;29;20047;-78
2023/11/04 01:37:19;;;;;;;8.90;1.80;;;8.10;100.00;;;;;;4941891;29;20122;-79
2023/11/04 01:39:46;;;;;;;10.75;1.92;;;8.10;100.00;;;;;;4939803;29;20135;-78
2023/11/04 01:42:13;;;;;;;9.23;1.85;;;8.10;100.00;;;;;;4928347;29;20138;-78
2023/11/04 01:44:41;;;;;;;14.70;2.25;;;8.00;100.00;;;;;;4939804;29;21758;-78
2023/11/04 01:47:08;;;;;;;8.50;2.15;;;8.00;100.00;;;;;;4945107;29;20089;-78
2023/11/04 01:49:35;;;;;;;18.10;2.75;;;8.00;100.00;;;;;;4944895;29;20079;-78
2023/11/04 01:52:02;;;;;;;8.68;2.00;;;7.90;100.00;;;;;;4944731;29;20114;-78
2023/11/04 01:54:30;;;;;;;9.32;2.50;;;7.90;100.00;;;;;;4943960;29;20058;-79
2023/11/04 01:56:58;;;;;;;13.98;2.90;;;7.80;100.00;;;;;;4938170;29;20058;-78
2023/11/04 01:59:26;;;;;;;11.55;2.85;;;7.70;100.00;;;;;;4924951;29;20054;-79
2023/11/04 02:01:53;;;;;;;13.35;2.10;;;7.70;100.00;;;;;;4936810;29;20081;-79
2023/11/04 02:04:20;;;;;;;13.60;2.05;;;7.70;100.00;;;;;;4941534;29;20043;-78
2023/11/04 02:06:48;;;;;;;9.23;2.25;;;7.60;100.00;;;;;;4941682;29;20587;-78
2023/11/04 02:09:15;;;;;;;12.18;2.20;;;7.60;100.00;;;;;;4936797;29;20059;-78
2023/11/04 02:11:42;;;;;;;13.85;2.13;;;7.60;100.00;;;;;;4942461;29;20087;-78
2023/11/04 02:14:10;;;;;;;10.25;2.22;;;7.50;100.00;;;;;;4927194;29;20051;-78
2023/11/04 02:16:37;;;;;;;10.38;2.33;;;7.50;100.00;;;;;;4947481;28;20043;-69
2023/11/04 02:19:05;;;;;;;19.58;2.42;;;7.40;100.00;;;;;;4941449;29;20100;-69
2023/11/04 02:21:32;;;;;;;14.25;2.33;;;7.30;100.00;;;;;;4935606;29;20107;-69
2023/11/04 02:23:59;;;;;;;11.48;2.58;;;7.20;100.00;;;;;;4940041;29;20048;-69
2023/11/04 02:26:27;;;;;;;11.63;1.98;;;7.10;100.00;;;;;;4938832;29;20141;-69
2023/11/04 02:28:54;;;;;;;11.60;2.33;;;7.00;100.00;;;;;;4933667;29;20043;-69
2023/11/04 02:31:20;;;;;;;14.13;2.42;;;7.00;100.00;;;;;;4936276;29;20055;-69
2023/11/04 02:33:47;;;;;;;18.25;2.40;;;6.90;100.00;;;;;;4939821;28;20043;-79
2023/11/04 02:36:15;;;;;;;5.82;1.83;;;6.80;100.00;;;;;;4940031;29;20047;-78
2023/11/04 02:38:42;;;;;;;8.55;2.50;;;6.80;100.00;;;;;;4937893;29;20051;-78
2023/11/04 02:41:09;;;;;;;19.05;2.50;;;6.70;100.00;;;;;;4944517;29;20126;-78
2023/11/04 02:43:36;;;;;;;12.20;2.33;;;6.70;100.00;;;;;;4957466;29;20481;-78
2023/11/04 02:46:09;;;;;;;8.70;2.20;;;6.60;100.00;;;;;;4928085;29;20055;-79
2023/11/04 02:48:36;;;;;;;18.20;2.40;;;6.50;100.00;;;;;;4927614;29;21160;-78
2023/11/04 02:51:03;;;;;;;12.57;2.92;;;6.50;100.00;;;;;;4945610;29;20480;-78
2023/11/04 02:53:30;;;;;;;10.68;2.00;;;6.40;100.00;;;;;;4943928;29;20542;-78
2023/11/04 02:55:57;;;;;;;9.00;2.45;;;6.40;100.00;;;;;;4942753;29;20496;-69
2023/11/04 02:58:23;;;;;;;8.68;2.55;;;6.30;100.00;;;;;;4948859;29;20139;-69
2023/11/04 03:00:50;;;;;;;17.40;3.08;;;6.30;100.00;;;;;;4939646;29;20047;-69
2023/11/04 03:06:57;;;;;;;17.13;2.35;;;6.30;100.00;;;;;;4921365;29;20131;-69
2023/11/04 03:09:24;;;;;;;7.88;2.20;;;6.20;100.00;;;;;;4920303;29;20048;-69
2023/11/04 03:11:52;;;;;;;13.63;2.67;;;6.20;100.00;;;;;;4920911;29;20059;-69
2023/11/04 03:14:19;;;;;;;12.85;2.15;;;6.20;100.00;;;;;;4921903;29;20048;-69
2023/11/04 03:16:46;;;;;;;13.70;2.70;;;6.10;100.00;;;;;;4918253;29;20110;-69
2023/11/04 03:19:13;;;;;;;15.10;2.33;;;6.10;100.00;;;;;;4921814;29;20044;-69
2023/11/04 03:21:43;;;;;;;16.15;2.17;;;6.00;100.00;;;;;;4922781;29;20044;-69
2023/11/04 03:24:11;;;;;;;12.60;2.83;;;6.00;100.00;;;;;;4924243;29;20060;-69
2023/11/04 03:26:38;;;;;;;10.38;2.50;;;6.00;100.00;;;;;;4907019;29;20052;-69
2023/11/04 03:29:05;;;;;;;14.85;2.88;;;5.90;100.00;;;;;;4923938;29;20051;-69
2023/11/04 03:31:32;;;;;;;10.85;2.38;;;5.90;100.00;;;;;;4931405;29;20134;-69
2023/11/04 03:33:59;;;;;;;12.50;2.28;;;5.90;100.00;;;;;;4930095;29;20060;-69
2023/11/04 03:36:26;;;;;;;8.85;2.33;;;5.80;100.00;;;;;;4941717;23;20626;-78
2023/11/04 03:38:53;;;;;;;14.88;2.25;;;5.80;100.00;;;;;;4934301;28;20059;-79
2023/11/04 03:41:20;;;;;;;3.53;1.75;;;5.70;100.00;;;;;;4926811;29;20043;-79
2023/11/04 03:43:47;;;;;;;9.55;1.90;;;5.70;100.00;;;;;;4939404;28;20075;-78
2023/11/04 03:46:14;;;;;;;7.20;2.17;;;5.70;100.00;;;;;;4935880;28;20082;-78
2023/11/04 03:48:41;;;;;;;8.20;2.17;;;5.70;100.00;;;;;;4946965;28;20054;-78
2023/11/04 03:51:10;;;;;;;10.38;2.30;;;5.70;100.00;;;;;;4928140;29;20062;-79
2023/11/04 03:53:37;;;;;;;13.23;2.80;;;5.70;100.00;;;;;;4926144;29;20578;-78
2023/11/04 03:56:04;;;;;;;14.63;2.03;;;5.70;100.00;;;;;;4936569;29;20754;-79
2023/11/04 03:58:31;;;;;;;15.95;2.60;;;5.60;100.00;;;;;;4938809;29;20805;-78
2023/11/04 04:00:58;;;;;;;8.90;2.05;;;5.60;100.00;;;;;;4941572;28;20067;-69
2023/11/04 04:03:25;;;;;;;15.15;2.25;;;5.60;100.00;;;;;;4940546;28;20046;-69
2023/11/04 04:05:52;;;;;;;17.65;2.42;;;5.60;100.00;;;;;;4922652;29;20469;-69
2023/11/04 04:08:19;;;;;;;10.25;2.20;;;5.50;100.00;;;;;;4946939;23;20128;-78
2023/11/04 04:10:46;;;;;;;8.15;2.45;;;5.50;100.00;;;;;;4937496;28;20130;-78
2023/11/04 04:13:13;;;;;;;12.57;2.20;;;5.50;100.00;;;;;;4939449;28;20052;-78
2023/11/04 04:15:40;;;;;;;8.65;2.00;;;5.50;100.00;;;;;;4932556;29;20074;-78
2023/11/04 04:18:07;;;;;;;8.13;2.15;;;5.50;100.00;;;;;;4933131;29;20511;-78
2023/11/04 04:20:34;;;;;;;8.45;2.15;;;5.40;100.00;;;;;;4918263;29;20059;-79
2023/11/04 04:23:00;;;;;;;7.03;1.88;;;5.40;100.00;;;;;;4930739;29;20055;-78
2023/11/04 04:25:27;;;;;;;15.52;2.40;;;5.40;100.00;;;;;;4932128;29;20071;-79
2023/11/04 04:27:54;;;;;;;21.77;2.85;;;5.40;100.00;;;;;;4937781;28;20083;-69
2023/11/04 04:30:21;;;;;;;14.23;2.38;;;5.40;100.00;;;;;;4929223;29;20048;-69
2023/11/04 04:32:48;;;;;;;11.75;2.80;;;5.30;100.00;;;;;;4915091;29;20142;-69
2023/11/04 04:35:15;;;;;;;9.65;2.50;;;5.30;100.00;;;;;;4937007;29;20162;-69
2023/11/04 04:37:42;;;;;;;7.13;2.33;;;5.30;100.00;;;;;;4931437;29;20079;-69
2023/11/04 04:40:09;;;;;;;15.73;2.47;;;5.30;100.00;;;;;;4919770;29;20082;-69
2023/11/04 04:42:36;;;;;;;9.85;1.92;;;5.20;100.00;;;;;;4941134;29;20059;-69
2023/11/04 04:45:04;;;;;;;13.38;2.90;;;5.20;100.00;;;;;;4915205;29;20043;-69
2023/11/04 04:47:33;;;;;;;7.93;2.22;;;5.20;100.00;;;;;;4915689;29;20087;-69
2023/11/04 04:50:00;;;;;;;9.10;2.60;;;5.20;100.00;;;;;;4939606;28;20098;-69
2023/11/04 04:52:27;;;;;;;8.93;3.13;;;5.20;100.00;;;;;;4929906;29;20803;-69
2023/11/04 04:54:53;;;;;;;8.90;2.00;;;5.10;100.00;;;;;;4934201;29;20074;-69
2023/11/04 04:57:20;;;;;;;11.23;2.63;;;5.10;100.00;;;;;;4939511;29;20043;-69
2023/11/04 04:59:47;;;;;;;13.10;2.40;;;5.00;100.00;;;;;;4930453;29;20686;-69
2023/11/04 05:02:15;;;;;;;7.22;2.15;;;5.00;100.00;;;;;;4937342;29;20485;-69
2023/11/04 05:04:45;;;;;;;6.78;1.90;;;4.90;100.00;;;;;;4936156;29;20051;-69
2023/11/04 05:07:12;;;;;;;5.75;1.98;;;4.90;100.00;;;;;;4923920;28;20208;-69
2023/11/04 05:09:38;;;;;;;12.82;2.08;;;4.90;100.00;;;;;;4920190;29;20130;-69
2023/11/04 05:12:06;;;;;;;9.10;2.10;;;4.90;100.00;;;;;;4933388;28;20079;-69
2023/11/04 05:14:33;;;;;;;9.52;2.78;;;4.90;100.00;;;;;;4942353;29;20488;-69
2023/11/04 05:17:00;;;;;;;10.73;2.08;;;4.90;100.00;;;;;;4915781;28;20545;-68
2023/11/04 05:19:27;;;;;;;9.35;1.77;;;4.90;100.00;;;;;;4938059;29;20134;-69
2023/11/04 05:21:54;;;;;;;14.75;2.40;;;4.90;100.00;;;;;;4932048;28;20637;-69
2023/11/04 05:24:21;;;;;;;10.68;2.30;;;4.90;100.00;;;;;;4939037;29;20051;-69
2023/11/04 05:26:48;;;;;;;24.65;2.63;;;4.90;100.00;;;;;;4937856;29;20051;-69
2023/11/04 05:29:15;;;;;;;11.77;2.35;;;4.90;100.00;;;;;;4935105;28;20051;-69
2023/11/04 05:31:41;;;;;;;16.05;2.00;;;4.90;100.00;;;;;;4940898;28;20677;-69
2023/11/04 05:34:11;;;;;;;8.77;1.92;;;4.90;100.00;;;;;;4932047;29;20051;-69
2023/11/04 05:36:38;;;;;;;7.40;1.77;;;4.90;100.00;;;;;;4934423;29;20095;-69
2023/11/04 05:39:05;;;;;;;7.22;1.90;;;4.80;100.00;;;;;;4935950;29;20051;-69
2023/11/04 05:41:32;;;;;;;4.82;2.00;;;4.80;100.00;;;;;;4937547;28;20075;-69
2023/11/04 05:43:59;;;;;;;9.43;2.17;;;4.90;100.00;;;;;;4922388;29;20062;-68
2023/11/04 05:46:26;;;;;;;8.77;2.33;;;4.90;100.00;;;;;;4934317;29;20055;-69
2023/11/04 05:48:52;;;;;;;15.60;2.17;;;4.80;100.00;;;;;;4939055;29;20111;-69
2023/11/04 05:51:25;;;;;;;8.25;1.88;;;4.80;100.00;;;;;;4919832;29;20050;-69
2023/11/04 05:53:52;;;;;;;7.72;2.22;;;4.80;100.00;;;;;;4937778;29;20492;-69
2023/11/04 05:56:20;;;;;;;7.82;2.38;;;4.80;100.00;;;;;;4933472;29;20100;-69
2023/11/04 05:58:47;;;;;;;8.90;1.83;;;4.70;100.00;;;;;;4918682;29;20673;-69
2023/11/04 06:01:14;;;;;;;9.27;2.05;;;4.70;100.00;;;;;;4933625;29;20047;-69
2023/11/04 06:03:41;;;;;;;12.40;2.03;;;4.70;100.00;;;;;;4934771;29;20133;-69
2023/11/04 06:06:08;;;;;;;9.43;1.98;;;4.70;100.00;;;;;;4915687;29;20544;-69
2023/11/04 06:08:35;;;;;;;7.50;1.75;;;4.70;100.00;;;;;;4939804;29;20062;-69
2023/11/04 06:11:03;;;;;;;10.43;2.10;;;4.70;100.00;;;;;;4935143;29;20070;-69
2023/11/04 06:13:30;;;;;;;13.77;2.00;;;4.60;100.00;;;;;;4914873;29;20055;-69
2023/11/04 06:15:57;;;;;;;15.15;1.83;;;4.60;100.00;;;;;;4933433;29;20059;-69
2023/11/04 06:18:24;;;;;;;6.15;1.90;;;4.60;100.00;;;;;;4936505;29;20055;-69
2023/11/04 06:20:51;;;;;;;6.82;1.95;;;4.60;100.00;;;;;;4935721;29;20639;-69
2023/11/04 06:23:18;;;;;;;13.18;2.13;;;4.60;100.00;;;;;;4922235;29;20051;-69
2023/11/04 06:29:09;;;;;;;9.13;1.65;;;4.60;100.00;;;;;;4938193;29;20051;-69
2023/11/04 06:31:36;;;;;;;9.65;2.10;;;4.60;100.00;;;;;;4919235;29;20073;-69
2023/11/04 06:34:03;;;;;;;6.78;1.90;;;4.60;100.00;;;;;;4934970;29;20087;-69
2023/11/04 06:36:33;;;;;;;9.43;2.38;;;4.60;100.00;;;;;;4940645;29;20055;-69
2023/11/04 06:39:00;;;;;;;11.60;2.40;;;4.60;100.00;;;;;;4920744;29;20058;-69
2023/11/04 06:41:27;;;;;;;12.07;2.35;;;4.50;100.00;;;;;;4936831;28;20047;-69
2023/11/04 06:43:54;;;;;;;6.07;1.77;;;4.50;100.00;;;;;;4933638;28;20150;-69
2023/11/04 06:46:21;;;;;;;9.98;1.83;;;4.60;100.00;;;;;;4933207;29;20154;-69
2023/11/04 06:48:48;;;;;;;6.00;1.67;;;4.60;100.00;;;;;;4940509;29;20082;-69
2023/11/04 06:51:19;;;;;;;11.23;1.85;;;4.60;100.00;;;;;;4936255;29;20158;-69
2023/11/04 06:53:46;;;;;;;8.18;1.88;;;4.50;100.00;;;;;;4930720;29;20356;-69
2023/11/04 06:56:13;;;;;;;5.07;2.05;;;4.50;100.00;;;;;;4936166;29;20063;-68
2023/11/04 06:58:41;;;;;;;14.77;2.28;;;4.50;100.00;;;;;;4927323;28;20083;-68
2023/11/04 07:01:13;;;;;;;14.43;2.00;;;4.50;100.00;;;;;;4935643;28;20113;-68
2023/11/04 07:03:41;;;;;;;7.13;2.08;;;4.50;100.00;;;;;;4943477;28;20043;-69
2023/11/04 07:06:13;;;;;;;19.85;2.65;;;4.50;100.00;;;;;;4944296;29;20052;-69
2023/11/04 07:08:42;;;;;;;13.55;1.65;;;4.40;100.00;;;;;;4942733;29;20059;-69
2023/11/04 07:11:13;;;;;;;13.48;2.30;;;4.50;100.00;;;;;;4935295;28;20138;-69
2023/11/04 07:13:41;;;;;;;13.23;2.05;;;4.50;100.00;;;;;;4946844;28;20509;-69
2023/11/04 07:16:12;;;;;;;6.20;1.40;;;4.50;100.00;;;;;;4937704;28;20055;-69
2023/11/04 07:18:43;;;;;;;12.30;1.65;;;4.50;100.00;;;;;;4941541;29;20051;-69
2023/11/04 07:21:11;;;;;;;6.45;1.65;;;4.50;100.00;;;;;;4943426;29;20051;-77
2023/11/04 07:23:38;;;;;;;6.25;1.60;;;4.50;100.00;;;;;;4941000;29;20054;-70
2023/11/04 07:26:07;;;;;;;6.38;1.60;;;4.50;100.00;;;;;;4914644;29;20146;-70
2023/11/04 07:28:35;;;;;;;13.52;2.40;;;4.60;100.00;;;;;;4937354;28;20047;-70
2023/11/04 07:31:05;;;;;;;16.50;2.17;;;4.60;100.00;;;;;;4946052;29;20610;-70
2023/11/04 07:33:33;;;;;;;10.15;1.48;;;4.70;100.00;;;;;;4941708;29;20154;-70
2023/11/04 07:36:00;;;;;;;9.48;1.63;;;4.80;100.00;;;;;;4937279;29;20117;-71
2023/11/04 07:38:27;;;;;;;7.97;2.05;;;4.80;100.00;;;;;;4934560;28;20055;-70
2023/11/04 07:40:54;;;;;;;8.75;1.85;;;4.80;100.00;;;;;;4937519;28;20471;-70
2023/11/04 07:43:21;;;;;;;7.60;2.08;;;4.80;100.00;;;;;;4934524;29;20052;-70
2023/11/04 07:45:48;;;;;;;10.93;2.03;;;4.90;100.00;;;;;;4937314;29;20051;-70
2023/11/04 07:48:16;;;;;;;13.10;1.55;;;5.00;100.00;;;;;;4936175;28;20062;-71
2023/11/04 07:50:43;;;;;;;11.00;2.53;;;5.10;100.00;;;;;;4938483;28;20042;-72
2023/11/04 07:53:10;;;;;;;6.20;1.50;;;5.10;100.00;;;;;;4943691;29;20642;-71
2023/11/04 07:55:37;;;;;;;15.00;1.85;;;5.20;100.00;;;;;;4939396;28;20051;-71
2023/11/04 07:58:04;;;;;;;10.85;2.70;;;5.30;100.00;;;;;;4939205;29;20051;-69
2023/11/04 08:00:31;;;;;;;12.07;1.73;;;5.40;100.00;;;;;;4941549;29;20051;-69
2023/11/04 08:02:58;;;;;;;8.85;2.15;;;5.40;100.00;;;;;;4934750;28;20087;-69
2023/11/04 08:05:29;;;;;;;7.10;1.88;;;5.40;100.00;;;;;;4937502;29;20054;-70
2023/11/04 08:07:56;;;;;;;11.93;2.10;;;5.50;100.00;;;;;;4943777;29;20047;-69
2023/11/04 08:10:24;;;;;;;11.82;2.25;;;5.60;100.00;;;;;;4917857;29;20386;-78
2023/11/04 08:12:51;;;;;;;15.35;2.00;;;5.70;100.00;;;;;;4916690;29;20503;-80
2023/11/04 08:15:18;;;;;;;9.68;1.83;;;5.80;100.00;;;;;;4942260;28;20059;-80
2023/11/04 08:17:45;;;;;;;7.80;1.83;;;5.90;100.00;;;;;;4935338;29;20134;-78
2023/11/04 08:20:12;;;;;;;13.07;1.73;;;5.90;100.00;;;;;;4941513;29;20054;-78
2023/11/04 08:22:39;;;;;;;5.88;1.77;;;6.00;100.00;;;;;;4918201;29;20150;-77
2023/11/04 08:25:08;;;;;;;6.53;1.50;;;6.10;100.00;;;;;;4935385;29;20131;-77
2023/11/04 08:27:35;;;;;;;7.65;2.10;;;6.20;100.00;;;;;;4936906;28;20055;-78
2023/11/04 08:30:04;;;;;;;15.93;1.75;;;6.20;100.00;;;;;;4921045;29;20051;-78
2023/11/04 08:32:31;;;;;;;10.23;1.50;;;6.30;100.00;;;;;;4944342;29;20453;-78
2023/11/04 08:34:59;;;;;;;6.40;1.80;;;6.40;100.00;;;;;;4936937;29;20066;-78
2023/11/04 08:37:26;;;;;;;6.38;1.45;;;6.50;100.00;;;;;;4922748;29;20897;-78
2023/11/04 08:39:54;;;;;;;6.35;1.40;;;6.60;100.00;;;;;;4935012;28;20118;-78
2023/11/04 08:42:22;;;;;;;9.18;1.70;;;6.60;100.00;;;;;;4956605;23;20043;-78
2023/11/04 08:44:49;;;;;;;5.07;1.50;;;6.70;100.00;;;;;;4906599;29;20055;-78
2023/11/04 08:47:17;;;;;;;6.40;1.42;;;6.70;100.00;;;;;;4910257;29;20052;-78
2023/11/04 08:49:44;;;;;;;4.10;1.20;;;6.70;100.00;;;;;;4924746;29;20185;-78
2023/11/04 08:52:11;;;;;;;7.80;1.73;;;6.80;100.00;;;;;;4927154;29;20069;-78
2023/11/04 08:54:40;;;;;;;8.70;1.50;;;6.80;100.00;;;;;;4927847;29;20058;-78
2023/11/04 08:57:08;;;;;;;4.10;1.60;;;6.90;100.00;;;;;;4927107;29;20063;-78
2023/11/04 08:59:36;;;;;;;5.57;1.50;;;6.90;100.00;;;;;;4908178;29;20504;-78
2023/11/04 09:02:03;;;;;;;10.68;1.80;;;7.00;100.00;;;;;;4927073;29;20083;-78
2023/11/04 09:04:30;;;;;;;9.13;1.20;;;7.00;100.00;;;;;;4926693;29;20774;-78
2023/11/04 09:06:57;;;;;;;7.93;1.52;;;7.10;100.00;;;;;;4925968;29;20058;-78
2023/11/04 09:09:25;;;;;;;7.72;1.48;;;7.10;100.00;;;;;;4910028;29;20131;-78
2023/11/04 09:11:55;;;;;;;5.75;1.75;;;7.20;100.00;;;;;;4926353;29;20060;-77
2023/11/04 09:14:25;;;;;;;5.53;1.08;;;7.20;100.00;;;;;;4927401;29;20539;-78
2023/11/04 09:16:53;;;;;;;10.15;1.52;;;7.30;100.00;;;;;;4928390;29;20051;-78
2023/11/04 09:19:20;;;;;;;7.28;1.40;;;7.30;100.00;;;;;;4926274;29;20544;-78
2023/11/04 09:21:47;;;;;;;6.85;1.50;;;7.30;100.00;;;;;;4909751;29;20051;-78
2023/11/04 09:24:14;;;;;;;9.77;1.58;;;7.30;100.00;;;;;;4923335;29;20329;-78
2023/11/04 09:26:41;;;;;;;3.70;1.58;;;7.40;100.00;;;;;;4927482;29;20047;-78
2023/11/04 09:29:08;;;;;;;7.28;1.25;;;7.50;100.00;;;;;;4931484;29;20546;-78
2023/11/04 09:31:36;;;;;;;6.00;1.25;;;7.60;100.00;;;;;;4924806;29;20047;-78
2023/11/04 09:34:08;;;;;;;4.70;1.20;;;7.60;100.00;;;;;;4909487;29;20143;-78
2023/11/04 09:36:36;;;;;;;7.90;1.23;;;7.60;100.00;;;;;;4926685;29;20107;-78
2023/11/04 09:39:04;;;;;;;4.50;1.42;;;7.60;100.00;;;;;;4922896;29;20048;-78
2023/11/04 09:41:31;;;;;;;6.22;1.17;;;7.60;100.00;;;;;;4909158;29;20048;-78
2023/11/04 09:44:03;;;;;;;73.60;7.80;;;7.70;100.00;;;;;;4933122;29;20051;-80
2023/11/04 09:46:31;;;;;;;10.48;2.28;;;7.80;100.00;;;;;;4910541;29;20056;-80
2023/11/04 09:48:59;;;;;;;6.25;1.60;;;7.90;100.00;;;;;;4898080;29;20087;-79
2023/11/04 09:51:27;;;;;;;7.82;1.73;;;8.00;100.00;;;;;;4911643;29;20059;-79
2023/11/04 09:53:58;;;;;;;6.68;1.20;;;8.20;100.00;;;;;;4910396;29;20048;-79
2023/11/04 09:56:26;;;;;;;4.97;1.98;;;8.20;100.00;;;;;;4923737;29;20055;-80
2023/11/04 09:58:53;;;;;;;30.90;2.97;;;8.30;100.00;;;;;;4923676;29;20055;-78
2023/11/04 10:01:20;;;;;;;3.33;1.52;;;8.40;100.00;;;;;;4922736;29;20050;-77
2023/11/04 10:03:48;;;;;;;4.13;1.15;;;8.40;100.00;;;;;;4917867;29;20048;-77
2023/11/04 10:06:15;;;;;;;3.40;1.27;;;8.40;100.00;;;;;;4908738;29;20738;-75
2023/11/04 10:08:44;;;;;;;6.20;1.40;;;8.40;100.00;;;;;;4923332;29;20555;-77
2023/11/04 10:11:11;;;;;;;10.45;2.15;;;8.40;100.00;;;;;;4916305;29;20063;-77
2023/11/04 10:13:39;;;;;;;3.10;0.80;;;8.50;100.00;;;;;;4928091;29;20059;-77
2023/11/04 10:16:07;;;;;;;6.85;1.35;;;8.60;100.00;;;;;;4917998;29;20059;-77
2023/11/04 10:18:37;;;;;;;3.30;1.00;;;8.60;100.00;;;;;;4945312;23;20130;-77
2023/11/04 10:21:06;;;;;;;5.15;1.27;;;8.70;100.00;;;;;;4936225;29;20058;-77
2023/11/04 10:23:34;;;;;;;4.55;1.27;;;8.90;100.00;;;;;;4920662;29;20102;-77
2023/11/04 10:26:03;;;;;;;4.93;1.25;;;9.20;100.00;;;;;;4939207;29;20135;-77
2023/11/04 10:28:32;;;;;;;6.75;1.50;;;9.40;100.00;;;;;;4924172;29;20370;-77
2023/11/04 10:31:04;;;;;;;5.78;1.55;;;9.40;99.30;;;;;;4943501;28;20155;-77
2023/11/04 10:33:39;;;;;;;3.80;1.25;;;9.30;99.90;;;;;;4945933;28;20051;-77
2023/11/04 10:36:11;;;;;;;3.42;0.90;;;9.40;99.80;;;;;;4945189;29;20063;-77
2023/11/04 10:38:44;;;;;;;8.20;1.42;;;9.70;100.00;;;;;;4938481;29;20051;-77
2023/11/04 10:41:17;;;;;;;2.92;1.10;;;10.00;98.00;;;;;;4940152;29;20098;-77
2023/11/04 10:43:59;;;;;;;8.65;1.30;;;10.20;98.50;;;;;;4920438;29;20134;-77
2023/11/04 10:46:58;;;;;;;6.70;1.17;;;10.70;97.10;;;;;;4940075;28;20071;-77
2023/11/04 10:49:43;;;;;;;11.63;1.50;;;11.00;97.10;;;;;;4908771;29;20107;-77
2023/11/04 10:52:13;;;;;;;8.83;1.47;;;11.00;94.70;;;;;;4934874;29;20152;-77
2023/11/04 10:54:44;;;;;;;4.80;1.00;;;11.20;93.70;;;;;;4943412;29;20905;-77
2023/11/04 10:57:14;;;;;;;3.47;1.30;;;11.00;93.30;;;;;;4943145;28;20082;-77
2023/11/04 11:00:05;;;;;;;5.28;1.38;;;11.20;95.60;;;;;;4939995;29;20151;-77
2023/11/04 11:02:33;;;;;;;2.53;1.10;;;11.40;91.70;;;;;;4920373;29;20059;-77
2023/11/04 11:05:01;;;;;;;2.65;1.10;;;11.10;91.10;;;;;;4937522;29;20055;-77
2023/11/04 11:07:28;;;;;;;5.82;1.50;;;10.90;91.30;;;;;;4939837;28;20047;-77
2023/11/04 11:09:57;;;;;;;5.22;1.25;;;10.90;92.70;;;;;;4934507;29;20051;-77
2023/11/04 11:12:25;;;;;;;2.65;0.90;;;10.60;90.50;;;;;;4940552;29;20047;-77
2023/11/04 11:14:53;;;;;;;5.35;0.90;;;10.50;94.90;;;;;;4919289;29;20134;-77
2023/11/04 11:17:30;;;;;;;2.38;1.00;;;10.50;95.30;;;;;;4942635;29;20161;-77
2023/11/04 11:19:57;;;;;;;6.15;1.48;;;10.70;94.40;;;;;;4941312;28;20130;-77
2023/11/04 11:22:27;;;;;;;1.45;0.80;;;10.70;92.90;;;;;;4944247;28;20048;-77
2023/11/04 11:24:58;;;;;;;3.95;0.88;;;10.60;94.70;;;;;;4942745;29;20058;-77
2023/11/04 11:27:25;;;;;;;3.40;1.15;;;10.50;92.60;;;;;;4923048;29;20054;-77
2023/11/04 11:29:56;;;;;;;4.93;1.52;;;10.40;94.00;;;;;;4925619;29;20518;-77
2023/11/04 11:32:34;;;;;;;3.90;1.02;;;10.30;96.50;;;;;;4925436;29;20457;-77
2023/11/04 11:35:04;;;;;;;2.67;0.93;;;10.20;95.30;;;;;;4941532;29;20055;-77
2023/11/04 11:37:31;;;;;;;3.28;1.15;;;10.20;95.60;;;;;;4939141;29;20138;-77
2023/11/04 11:39:58;;;;;;;2.28;1.20;;;10.20;95.70;;;;;;4944668;28;20066;-70
2023/11/04 11:42:27;;;;;;;2.22;1.23;;;10.20;97.00;;;;;;4932154;29;20044;-70
2023/11/04 11:44:55;;;;;;;6.32;1.70;;;10.30;96.30;;;;;;4922485;29;20145;-70
2023/11/04 11:47:22;;;;;;;2.22;1.08;;;10.30;96.30;;;;;;4942357;29;20051;-70
2023/11/04 11:49:49;;;;;;;8.32;1.10;;;10.40;95.70;;;;;;4925829;29;20111;-70
2023/11/04 11:52:16;;;;;;;4.40;1.30;;;10.40;96.30;;;;;;4927302;29;20071;-70
2023/11/04 11:54:44;;;;;;;4.15;1.33;;;10.40;95.70;;;;;;4923047;29;20084;-70
2023/11/04 11:57:11;;;;;;;2.10;1.17;;;10.50;95.40;;;;;;4941343;29;20673;-70
2023/11/04 11:59:39;;;;;;;4.50;0.98;;;10.50;94.70;;;;;;4924542;29;20497;-70
2023/11/04 12:02:07;;;;;;;5.60;1.17;;;10.50;95.00;;;;;;4943174;28;20062;-70
2023/11/04 12:04:35;;;;;;;3.78;1.25;;;10.50;96.20;;;;;;4927733;29;20051;-70
2023/11/04 12:07:02;;;;;;;6.05;1.15;;;10.50;95.80;;;;;;4940221;29;20564;-70
2023/11/04 12:09:30;;;;;;;2.72;1.17;;;10.60;95.80;;;;;;4943831;29;20150;-70
2023/11/04 12:11:57;;;;;;;2.97;1.30;;;10.70;93.90;;;;;;4940442;29;20050;-70
2023/11/04 12:14:24;;;;;;;5.13;1.60;;;10.70;94.50;;;;;;4941830;29;20044;-70
2023/11/04 12:16:53;;;;;;;2.38;1.20;;;10.80;93.40;;;;;;4941677;28;20066;-70
2023/11/04 12:19:21;;;;;;;3.95;1.40;;;10.90;95.00;;;;;;4943300;28;20055;-70
2023/11/04 12:21:49;;;;;;;3.55;1.27;;;11.00;94.80;;;;;;4944052;28;20154;-70
2023/11/04 12:24:16;;;;;;;2.10;1.13;;;11.10;92.60;;;;;;4945427;29;20706;-70
2023/11/04 12:26:44;;;;;;;5.65;1.10;;;11.30;94.00;;;;;;4922330;29;20073;-70
2023/11/04 12:29:11;;;;;;;3.30;1.20;;;11.50;95.00;;;;;;4921306;29;20157;-70
2023/11/04 12:31:39;;;;;;;5.60;1.10;;;11.90;92.70;;;;;;4939307;29;20102;-70
2023/11/04 12:34:06;;;;;;;3.03;1.30;;;12.50;87.90;;;;;;4933017;28;20623;-70
2023/11/04 12:36:34;;;;;;;3.90;1.15;;;13.30;86.70;;;;;;4941659;29;20495;-70
2023/11/04 12:39:03;;;;;;;1.85;0.82;;;14.70;82.60;;;;;;4942839;29;20202;-70
2023/11/04 12:41:30;;;;;;;3.08;0.88;;;15.70;75.80;;;;;;4943599;28;20050;-70
2023/11/04 12:44:01;;;;;;;4.32;1.00;;;16.50;70.50;;;;;;4944647;28;20047;-70
2023/11/04 12:46:29;;;;;;;4.38;1.30;;;17.00;70.60;;;;;;4930679;29;20054;-68
2023/11/04 12:48:57;;;;;;;3.00;1.40;;;16.90;67.30;;;;;;4940833;29;20130;-69
2023/11/04 12:51:24;;;;;;;5.60;1.30;;;16.60;65.90;;;;;;4945875;28;20062;-69
2023/11/04 12:53:52;;;;;;;2.28;1.05;;;16.30;64.60;;;;;;4937069;29;20058;-69